createdAt,value
2018-07-27T00:01:20.723Z,17.79
2018-07-27T00:03:49.599Z,17.72
2018-07-27T00:06:18.859Z,17.66
2018-07-27T00:08:47.497Z,17.58
2018-07-27T00:11:16.126Z,17.55
2018-07-27T00:13:45.429Z,17.50
2018-07-27T00:16:14.270Z,17.45
2018-07-27T00:18:42.883Z,17.39
2018-07-27T00:21:11.475Z,17.35
2018-07-27T00:23:40.236Z,17.30
2018-07-27T00:26:09.420Z,17.25
2018-07-27T00:28:37.919Z,17.20
2018-07-27T00:31:06.871Z,17.17
2018-07-27T00:33:35.390Z,17.13
2018-07-27T00:36:03.940Z,17.08
2018-07-27T00:38:32.466Z,17.06
2018-07-27T00:41:01.051Z,17.01
2018-07-27T00:43:30.175Z,17.00
2018-07-27T00:45:58.801Z,17.01
2018-07-27T00:48:27.426Z,17.01
2018-07-27T00:50:55.974Z,17.04
2018-07-27T00:53:24.615Z,17.06
2018-07-27T00:55:53.235Z,17.05
2018-07-27T00:58:21.817Z,17.04
2018-07-27T01:00:50.503Z,17.01
2018-07-27T01:03:19.123Z,16.98
2018-07-27T01:05:47.771Z,16.94
2018-07-27T01:08:16.396Z,16.89
2018-07-27T01:10:44.980Z,16.85
2018-07-27T01:13:13.504Z,16.79
2018-07-27T01:15:42.130Z,16.74
2018-07-27T01:18:10.658Z,16.69
2018-07-27T01:20:40.292Z,16.66
2018-07-27T01:23:09.144Z,16.63
2018-07-27T01:25:37.867Z,16.59
2018-07-27T01:28:06.804Z,16.57
2018-07-27T01:30:35.385Z,16.53
2018-07-27T01:33:04.128Z,16.51
2018-07-27T01:35:32.813Z,16.47
2018-07-27T01:38:01.366Z,16.43
2018-07-27T01:40:30.014Z,16.39
2018-07-27T01:42:58.664Z,16.35
2018-07-27T01:45:27.350Z,16.32
2018-07-27T01:47:55.886Z,16.27
2018-07-27T01:50:24.516Z,16.24
2018-07-27T01:52:53.021Z,16.22
2018-07-27T01:55:21.886Z,16.19
2018-07-27T01:57:50.468Z,16.15
2018-07-27T02:00:19.098Z,16.12
2018-07-27T02:02:47.737Z,16.08
2018-07-27T02:05:16.422Z,16.06
2018-07-27T02:07:45.054Z,16.03
2018-07-27T02:10:13.691Z,16.00
2018-07-27T02:12:42.273Z,15.96
2018-07-27T02:15:11.330Z,15.93
2018-07-27T02:17:40.361Z,15.90
2018-07-27T02:20:09.090Z,15.85
2018-07-27T02:22:37.732Z,15.83
2018-07-27T02:25:06.522Z,15.83
2018-07-27T02:27:35.820Z,15.81
2018-07-27T02:30:05.168Z,15.81
2018-07-27T02:32:33.803Z,15.79
2018-07-27T02:35:02.390Z,15.78
2018-07-27T02:37:30.907Z,15.77
2018-07-27T02:39:59.515Z,15.86
2018-07-27T02:42:28.134Z,15.92
2018-07-27T02:44:56.821Z,15.94
2018-07-27T02:47:25.404Z,15.93
2018-07-27T02:49:54.008Z,15.90
2018-07-27T02:52:22.671Z,15.89
2018-07-27T02:54:51.358Z,15.91
2018-07-27T02:57:19.941Z,15.94
2018-07-27T02:59:48.524Z,15.96
2018-07-27T03:02:17.155Z,15.99
2018-07-27T03:04:45.706Z,16.00
2018-07-27T03:07:14.268Z,16.00
2018-07-27T03:09:43.054Z,15.99
2018-07-27T03:12:11.540Z,15.97
2018-07-27T03:14:40.139Z,15.96
2018-07-27T03:17:08.808Z,15.97
2018-07-27T03:19:37.492Z,15.98
2018-07-27T03:22:06.077Z,15.96
2018-07-27T03:24:34.606Z,15.98
2018-07-27T03:27:03.175Z,15.99
2018-07-27T03:29:31.882Z,16.01
2018-07-27T03:32:00.510Z,16.04
2018-07-27T03:34:29.146Z,16.09
2018-07-27T03:36:57.987Z,16.10
2018-07-27T03:39:26.566Z,16.12
2018-07-27T03:41:55.055Z,16.14
2018-07-27T03:44:23.663Z,16.16
2018-07-27T03:46:52.219Z,16.25
2018-07-27T03:49:20.800Z,16.28
2018-07-27T03:51:49.380Z,16.32
2018-07-27T03:54:17.950Z,16.35
2018-07-27T03:56:46.445Z,16.37
2018-07-27T03:59:15.127Z,16.37
2018-07-27T04:01:43.694Z,16.39
2018-07-27T04:04:12.292Z,16.42
2018-07-27T04:06:40.979Z,16.45
2018-07-27T04:09:10.218Z,16.51
2018-07-27T04:11:39.342Z,16.55
2018-07-27T04:14:08.415Z,16.62
2018-07-27T04:16:36.986Z,16.65
2018-07-27T04:19:05.736Z,16.70
2018-07-27T04:21:34.420Z,16.76
2018-07-27T04:24:03.043Z,16.83
2018-07-27T04:26:31.689Z,16.91
2018-07-27T04:29:00.182Z,17.06
2018-07-27T04:31:28.752Z,17.20
2018-07-27T04:33:57.540Z,17.34
2018-07-27T04:36:26.080Z,17.52
2018-07-27T04:38:54.910Z,17.63
2018-07-27T04:41:23.519Z,17.78
2018-07-27T04:43:52.177Z,17.87
2018-07-27T04:46:20.863Z,17.96
2018-07-27T04:48:49.550Z,18.10
2018-07-27T04:51:18.235Z,18.26
2018-07-27T04:53:46.821Z,18.38
2018-07-27T04:56:15.531Z,18.44
2018-07-27T04:58:45.213Z,18.54
2018-07-27T05:01:13.899Z,18.60
2018-07-27T05:03:42.547Z,18.66
2018-07-27T05:06:11.169Z,18.76
2018-07-27T05:08:44.994Z,18.81
2018-07-27T05:11:13.619Z,18.91
2018-07-27T05:13:42.266Z,19.06
2018-07-27T05:16:10.924Z,19.22
2018-07-27T05:18:39.508Z,19.33
2018-07-27T05:21:08.133Z,19.43
2018-07-27T05:23:36.638Z,19.56
2018-07-27T05:26:05.356Z,19.68
2018-07-27T05:28:33.850Z,19.89
2018-07-27T05:31:02.462Z,20.01
2018-07-27T05:33:31.105Z,20.08
2018-07-27T05:36:00.201Z,20.21
2018-07-27T05:38:28.726Z,20.31
2018-07-27T05:40:57.570Z,20.45
2018-07-27T05:43:26.155Z,20.56
2018-07-27T05:45:54.838Z,20.66
2018-07-27T05:48:23.421Z,20.77
2018-07-27T05:50:52.210Z,20.87
2018-07-27T05:53:20.898Z,20.95
2018-07-27T05:55:49.486Z,21.06
2018-07-27T05:58:18.105Z,21.13
2018-07-27T06:00:46.690Z,21.19
2018-07-27T06:03:15.264Z,21.28
2018-07-27T06:05:43.912Z,21.41
2018-07-27T06:08:12.496Z,21.51
2018-07-27T06:10:41.123Z,21.60
2018-07-27T06:13:09.707Z,21.65
2018-07-27T06:15:38.272Z,21.75
2018-07-27T06:18:07.134Z,21.83
2018-07-27T06:20:36.022Z,21.90
2018-07-27T06:23:04.549Z,21.98
2018-07-27T06:25:33.239Z,22.08
2018-07-27T06:28:01.819Z,22.18
2018-07-27T06:30:30.401Z,22.24
2018-07-27T06:32:58.996Z,22.34
2018-07-27T06:35:27.571Z,22.41
2018-07-27T06:37:56.206Z,22.50
2018-07-27T06:40:24.736Z,22.61
2018-07-27T06:42:53.271Z,22.71
2018-07-27T06:45:22.409Z,22.80
2018-07-27T06:47:51.014Z,22.89
2018-07-27T06:50:19.736Z,23.00
2018-07-27T06:52:49.243Z,23.11
2018-07-27T06:55:17.867Z,23.23
2018-07-27T06:57:46.580Z,23.31
2018-07-27T07:00:15.143Z,23.41
2018-07-27T07:02:43.782Z,23.57
2018-07-27T07:05:12.294Z,23.65
2018-07-27T07:07:40.843Z,23.79
2018-07-27T07:10:09.582Z,23.92
2018-07-27T07:12:38.118Z,24.01
2018-07-27T07:15:08.741Z,24.13
2018-07-27T07:17:37.413Z,24.23
2018-07-27T07:20:07.594Z,24.33
2018-07-27T07:22:36.089Z,24.43
2018-07-27T07:25:04.988Z,24.55
2018-07-27T07:27:33.601Z,24.65
2018-07-27T07:30:02.145Z,24.79
2018-07-27T07:32:30.687Z,24.89
2018-07-27T07:34:59.348Z,24.98
2018-07-27T07:37:28.036Z,25.16
2018-07-27T07:39:56.550Z,25.26
2018-07-27T07:42:25.138Z,25.35
2018-07-27T07:44:53.931Z,25.48
2018-07-27T07:47:22.504Z,25.58
2018-07-27T07:49:51.360Z,25.70
2018-07-27T07:52:20.004Z,25.85
2018-07-27T07:54:48.675Z,25.99
2018-07-27T07:57:17.313Z,26.09
2018-07-27T07:59:45.934Z,26.17
2018-07-27T08:02:14.506Z,26.26
2018-07-27T08:04:43.084Z,26.34
2018-07-27T08:07:11.746Z,26.33
2018-07-27T08:09:40.255Z,26.35
2018-07-27T08:12:08.911Z,26.39
2018-07-27T08:14:37.492Z,26.51
2018-07-27T08:17:06.179Z,26.68
2018-07-27T08:19:34.864Z,26.79
2018-07-27T08:22:03.521Z,26.93
2018-07-27T08:24:32.123Z,26.94
2018-07-27T08:27:02.559Z,27.00
2018-07-27T08:29:32.473Z,27.12
2018-07-27T08:32:01.551Z,27.27
2018-07-27T08:34:30.176Z,27.33
2018-07-27T08:36:58.835Z,27.40
2018-07-27T08:39:32.639Z,27.47
2018-07-27T08:42:01.167Z,27.64
2018-07-27T08:44:30.963Z,27.72
2018-07-27T08:46:59.720Z,27.84
2018-07-27T08:49:28.303Z,27.93
2018-07-27T08:51:56.869Z,27.86
2018-07-27T08:54:25.469Z,27.79
2018-07-27T08:56:54.051Z,27.71
2018-07-27T08:59:22.682Z,27.64
2018-07-27T09:01:51.322Z,27.66
2018-07-27T09:04:20.006Z,27.60
2018-07-27T09:06:48.706Z,27.56
2018-07-27T09:09:18.791Z,27.36
2018-07-27T09:11:47.473Z,27.40
2018-07-27T09:14:16.590Z,27.42
2018-07-27T09:16:45.966Z,27.37
2018-07-27T09:19:14.474Z,27.28
2018-07-27T09:21:44.535Z,27.20
2018-07-27T09:24:13.266Z,27.20
2018-07-27T09:26:42.013Z,27.12
2018-07-27T09:29:10.584Z,27.16
2018-07-27T09:31:39.229Z,27.13
2018-07-27T09:34:07.955Z,27.23
2018-07-27T09:36:36.498Z,27.31
2018-07-27T09:39:08.430Z,27.29
2018-07-27T09:41:37.294Z,27.32
2018-07-27T09:44:06.003Z,27.41
2018-07-27T09:46:35.027Z,27.43
2018-07-27T09:49:03.933Z,27.48
2018-07-27T09:51:32.563Z,27.49
2018-07-27T09:54:01.167Z,27.50
2018-07-27T09:56:30.179Z,27.49
2018-07-27T09:58:58.691Z,27.48
2018-07-27T10:01:28.642Z,27.52
2018-07-27T10:03:57.253Z,27.56
2018-07-27T10:06:25.836Z,27.56
2018-07-27T10:08:54.363Z,27.54
2018-07-27T10:11:22.908Z,27.63
2018-07-27T10:13:51.530Z,27.74
2018-07-27T10:16:20.175Z,27.70
2018-07-27T10:18:48.795Z,27.73
2018-07-27T10:21:17.341Z,27.74
2018-07-27T10:23:45.921Z,27.76
2018-07-27T10:26:14.519Z,27.79
2018-07-27T10:28:43.140Z,27.74
2018-07-27T10:31:11.790Z,27.86
2018-07-27T10:33:40.386Z,27.97
2018-07-27T10:36:08.940Z,28.08
2018-07-27T10:38:37.583Z,28.08
2018-07-27T10:41:06.122Z,28.03
2018-07-27T10:43:34.789Z,28.07
2018-07-27T10:46:03.474Z,28.19
2018-07-27T10:48:32.045Z,28.39
2018-07-27T10:51:00.556Z,28.45
2018-07-27T10:53:29.292Z,28.51
2018-07-27T10:55:57.867Z,28.52
2018-07-27T10:58:26.495Z,28.56
2018-07-27T11:00:55.030Z,28.61
2018-07-27T11:03:23.658Z,28.54
2018-07-27T11:05:52.343Z,28.61
2018-07-27T11:08:20.929Z,28.60
2018-07-27T11:10:49.578Z,28.68
2018-07-27T11:13:18.196Z,28.70
2018-07-27T11:15:47.392Z,28.73
2018-07-27T11:18:15.982Z,28.71
2018-07-27T11:20:44.527Z,28.68
2018-07-27T11:23:13.135Z,28.74
2018-07-27T11:25:41.730Z,28.66
2018-07-27T11:28:10.306Z,28.60
2018-07-27T11:30:38.847Z,28.78
2018-07-27T11:33:07.387Z,28.88
2018-07-27T11:35:35.952Z,28.98
2018-07-27T11:38:04.636Z,29.01
2018-07-27T11:40:33.322Z,29.06
2018-07-27T11:43:01.837Z,29.11
2018-07-27T11:45:30.387Z,29.22
2018-07-27T11:47:58.969Z,29.31
2018-07-27T11:50:28.166Z,29.37
2018-07-27T11:52:56.919Z,29.38
2018-07-27T11:55:25.538Z,29.42
2018-07-27T11:57:54.120Z,29.45
2018-07-27T12:00:22.768Z,29.53
2018-07-27T12:02:51.343Z,29.47
2018-07-27T12:05:19.894Z,29.39
2018-07-27T12:07:48.641Z,29.20
2018-07-27T12:10:17.176Z,29.04
2018-07-27T12:12:45.719Z,29.03
2018-07-27T12:15:14.654Z,28.96
2018-07-27T12:17:42.930Z,28.91
2018-07-27T12:20:11.574Z,28.85
2018-07-27T12:22:40.260Z,29.02
2018-07-27T12:25:08.838Z,29.01
2018-07-27T12:27:37.524Z,29.05
2018-07-27T12:30:06.470Z,29.16
2018-07-27T12:32:35.152Z,29.13
2018-07-27T12:35:03.783Z,29.28
2018-07-27T12:37:32.418Z,29.45
2018-07-27T12:40:00.950Z,29.53
2018-07-27T12:42:29.639Z,29.37
2018-07-27T12:44:58.173Z,29.33
2018-07-27T12:47:26.802Z,29.39
2018-07-27T12:49:55.311Z,29.34
2018-07-27T12:52:24.071Z,29.37
2018-07-27T12:54:52.798Z,29.25
2018-07-27T12:57:21.441Z,29.26
2018-07-27T12:59:50.126Z,29.29
2018-07-27T13:02:18.655Z,29.41
2018-07-27T13:04:47.206Z,29.54
2018-07-27T13:07:15.875Z,29.67
2018-07-27T13:09:44.474Z,29.56
2018-07-27T13:12:13.148Z,29.59
2018-07-27T13:14:41.730Z,29.63
2018-07-27T13:17:10.313Z,29.91
2018-07-27T13:19:39.038Z,30.11
2018-07-27T13:22:07.750Z,30.25
2018-07-27T13:25:02.878Z,30.34
2018-07-27T13:27:05.153Z,30.56
2018-07-27T13:29:33.838Z,30.74
2018-07-27T13:32:02.359Z,30.80
2018-07-27T13:34:39.124Z,30.80
2018-07-27T13:37:07.839Z,30.79
2018-07-27T13:39:37.225Z,30.70
2018-07-27T13:42:06.685Z,30.76
2018-07-27T13:44:36.394Z,30.76
2018-07-27T13:47:05.796Z,30.66
2018-07-27T13:49:34.434Z,30.72
2018-07-27T13:52:03.167Z,30.50
2018-07-27T13:54:32.857Z,30.39
2018-07-27T13:57:01.864Z,30.12
2018-07-27T13:59:30.756Z,30.07
2018-07-27T14:01:59.395Z,30.14
2018-07-27T14:04:27.954Z,30.28
2018-07-27T14:06:58.350Z,30.38
2018-07-27T14:09:26.880Z,30.45
2018-07-27T14:11:55.479Z,30.45
2018-07-27T14:14:25.073Z,30.42
2018-07-27T14:16:53.607Z,30.52
2018-07-27T14:19:22.902Z,30.64
2018-07-27T14:21:51.670Z,30.64
2018-07-27T14:24:20.583Z,30.72
2018-07-27T14:26:49.251Z,30.68
2018-07-27T14:29:17.924Z,30.68
2018-07-27T14:31:46.534Z,30.69
2018-07-27T14:34:15.118Z,30.55
2018-07-27T14:36:43.743Z,30.50
2018-07-27T14:39:14.174Z,30.51
2018-07-27T14:41:44.042Z,30.62
2018-07-27T14:44:12.779Z,30.82
2018-07-27T14:46:41.411Z,30.90
2018-07-27T14:49:10.810Z,31.08
2018-07-27T14:51:40.042Z,31.06
2018-07-27T14:54:09.967Z,30.93
2018-07-27T14:56:39.070Z,31.00
2018-07-27T14:59:07.917Z,31.07
2018-07-27T15:01:36.560Z,31.13
2018-07-27T15:04:05.179Z,31.21
2018-07-27T15:06:33.871Z,31.37
2018-07-27T15:09:02.869Z,31.45
2018-07-27T15:11:31.519Z,31.49
2018-07-27T15:14:00.075Z,31.72
2018-07-27T15:16:28.810Z,31.82
2018-07-27T15:18:57.454Z,31.73
2018-07-27T15:21:26.282Z,31.69
2018-07-27T15:23:54.920Z,31.57
2018-07-27T15:26:23.653Z,31.44
2018-07-27T15:28:52.853Z,31.61
2018-07-27T15:31:21.538Z,31.76
2018-07-27T15:33:50.224Z,31.96
2018-07-27T15:36:19.010Z,31.80
2018-07-27T15:38:47.615Z,31.94
2018-07-27T15:41:16.323Z,32.00
2018-07-27T15:43:44.891Z,31.95
2018-07-27T15:46:13.559Z,32.04
2018-07-27T15:48:42.234Z,32.01
2018-07-27T15:51:11.022Z,31.86
2018-07-27T15:53:39.667Z,31.77
2018-07-27T15:56:08.493Z,31.44
2018-07-27T15:58:37.022Z,31.32
2018-07-27T16:01:05.719Z,31.23
2018-07-27T16:03:34.449Z,30.85
2018-07-27T16:06:03.032Z,30.85
2018-07-27T16:08:32.330Z,30.97
2018-07-27T16:11:00.913Z,30.87
2018-07-27T16:13:29.439Z,30.83
2018-07-27T16:15:58.136Z,30.79
2018-07-27T16:18:27.214Z,30.67
2018-07-27T16:20:55.857Z,30.72
2018-07-27T16:23:24.558Z,30.70
2018-07-27T16:25:53.062Z,30.80
2018-07-27T16:28:21.763Z,30.87
2018-07-27T16:30:50.399Z,30.86
2018-07-27T16:33:19.189Z,30.93
2018-07-27T16:35:47.875Z,31.07
2018-07-27T16:38:16.474Z,31.23
2018-07-27T16:40:45.168Z,31.38
2018-07-27T16:43:13.825Z,31.40
2018-07-27T16:45:42.567Z,31.36
2018-07-27T16:48:11.194Z,31.24
2018-07-27T16:50:39.775Z,31.22
2018-07-27T16:53:08.563Z,31.16
2018-07-27T16:55:37.145Z,31.20
2018-07-27T16:58:05.746Z,31.16
2018-07-27T17:00:34.359Z,31.24
2018-07-27T17:03:02.955Z,31.12
2018-07-27T17:05:31.580Z,31.10
2018-07-27T17:08:00.177Z,30.98
2018-07-27T17:10:28.948Z,30.98
2018-07-27T17:12:57.452Z,30.97
2018-07-27T17:15:26.076Z,30.95
2018-07-27T17:17:54.639Z,30.90
2018-07-27T17:20:23.300Z,30.88
2018-07-27T17:22:51.888Z,30.58
2018-07-27T17:25:21.150Z,30.90
2018-07-27T17:27:49.691Z,30.86
2018-07-27T17:30:18.330Z,30.82
2018-07-27T17:32:46.922Z,30.81
2018-07-27T17:35:15.699Z,30.77
2018-07-27T17:37:44.221Z,30.72
2018-07-27T17:40:12.967Z,30.67
2018-07-27T17:42:41.596Z,30.60
2018-07-27T17:45:10.507Z,30.57
2018-07-27T17:47:39.379Z,30.61
2018-07-27T17:50:08.630Z,30.61
2018-07-27T17:52:37.264Z,30.61
2018-07-27T17:55:06.942Z,30.63
2018-07-27T17:57:35.505Z,30.64
2018-07-27T18:00:04.385Z,30.65
2018-07-27T18:02:32.977Z,30.65
2018-07-27T18:05:01.499Z,30.75
2018-07-27T18:07:30.401Z,30.79
2018-07-27T18:09:58.974Z,30.77
2018-07-27T18:12:27.671Z,30.79
2018-07-27T18:14:56.247Z,30.80
2018-07-27T18:17:24.830Z,30.77
2018-07-27T18:19:53.530Z,30.78
2018-07-27T18:22:22.116Z,30.78
2018-07-27T18:24:50.740Z,30.79
2018-07-27T18:27:19.272Z,30.77
2018-07-27T18:29:47.902Z,30.73
2018-07-27T18:32:16.738Z,30.70
2018-07-27T18:34:45.328Z,30.69
2018-07-27T18:37:13.902Z,30.66
2018-07-27T18:39:42.575Z,30.63
2018-07-27T18:42:11.228Z,30.56
2018-07-27T18:44:40.097Z,30.48
2018-07-27T18:47:08.699Z,30.42
2018-07-27T18:49:37.334Z,30.37
2018-07-27T18:52:06.031Z,30.31
2018-07-27T18:54:34.662Z,30.25
2018-07-27T18:57:03.338Z,30.17
2018-07-27T18:59:33.637Z,30.10
2018-07-27T19:02:02.229Z,29.99
2018-07-27T19:04:31.770Z,29.86
2018-07-27T19:07:00.750Z,29.78
2018-07-27T19:09:29.310Z,29.71
2018-07-27T19:11:57.908Z,29.61
2018-07-27T19:14:26.589Z,29.51
2018-07-27T19:16:55.180Z,29.40
2018-07-27T19:19:23.882Z,29.34
2018-07-27T19:21:52.507Z,29.26
2018-07-27T19:24:21.048Z,29.15
2018-07-27T19:26:49.726Z,29.07
2018-07-27T19:29:18.955Z,29.01
2018-07-27T19:31:47.533Z,28.89
2018-07-27T19:34:16.178Z,28.82
2018-07-27T19:36:44.813Z,28.72
2018-07-27T19:39:13.550Z,28.60
2018-07-27T19:41:42.680Z,28.52
2018-07-27T19:44:11.575Z,28.43
2018-07-27T19:46:40.167Z,28.36
2018-07-27T19:49:09.677Z,28.24
2018-07-27T19:51:39.329Z,28.18
2018-07-27T19:54:08.119Z,28.10
2018-07-27T19:56:36.763Z,28.03
2018-07-27T19:59:05.437Z,27.95
2018-07-27T20:01:34.276Z,27.90
2018-07-27T20:04:02.864Z,27.83
2018-07-27T20:06:31.403Z,27.77
2018-07-27T20:09:00.233Z,27.69
2018-07-27T20:11:28.812Z,27.61
2018-07-27T20:13:57.364Z,27.53
2018-07-27T20:16:25.931Z,27.43
2018-07-27T20:18:54.663Z,27.35
2018-07-27T20:21:23.345Z,27.27
2018-07-27T20:23:52.035Z,27.19
2018-07-27T20:26:20.586Z,27.11
2018-07-27T20:28:49.216Z,27.04
2018-07-27T20:31:18.030Z,26.98
2018-07-27T20:33:46.676Z,26.93
2018-07-27T20:36:15.255Z,26.87
2018-07-27T20:38:43.771Z,26.80
2018-07-27T20:41:12.394Z,26.76
2018-07-27T20:43:41.130Z,26.70
2018-07-27T20:46:09.842Z,26.61
2018-07-27T20:48:38.496Z,26.55
2018-07-27T20:51:07.315Z,26.50
2018-07-27T20:53:35.827Z,26.45
2018-07-27T20:56:04.535Z,26.37
2018-07-27T20:58:33.630Z,26.33
2018-07-27T21:01:02.815Z,26.27
2018-07-27T21:03:31.455Z,26.24
2018-07-27T21:06:00.097Z,26.16
2018-07-27T21:08:28.722Z,26.07
2018-07-27T21:10:57.416Z,26.02
2018-07-27T21:13:26.049Z,25.94
2018-07-27T21:15:55.308Z,25.86
2018-07-27T21:18:23.894Z,25.78
2018-07-27T21:20:52.516Z,25.70
2018-07-27T21:23:21.243Z,25.63
2018-07-27T21:25:50.604Z,25.59
2018-07-27T21:28:19.187Z,25.53
2018-07-27T21:30:47.767Z,25.48
2018-07-27T21:33:16.270Z,25.42
2018-07-27T21:35:44.859Z,25.37
2018-07-27T21:38:13.618Z,25.33
2018-07-27T21:40:42.246Z,25.28
2018-07-27T21:43:12.730Z,25.24
2018-07-27T21:45:41.374Z,25.19
2018-07-27T21:48:09.917Z,25.12
2018-07-27T21:50:38.582Z,25.04
2018-07-27T21:53:07.219Z,24.98
2018-07-27T21:55:35.770Z,24.92
2018-07-27T21:58:04.948Z,24.87
2018-07-27T22:00:34.288Z,24.81
2018-07-27T22:03:04.403Z,24.75
2018-07-27T22:05:33.049Z,24.69
2018-07-27T22:08:01.679Z,24.61
2018-07-27T22:10:30.317Z,24.53
2018-07-27T22:12:58.878Z,24.45
2018-07-27T22:15:27.790Z,24.35
2018-07-27T22:17:56.303Z,24.26
2018-07-27T22:20:25.431Z,24.20
2018-07-27T22:22:54.153Z,24.12
2018-07-27T22:25:22.840Z,24.05
2018-07-27T22:27:51.445Z,23.99
2018-07-27T22:30:20.287Z,23.92
2018-07-27T22:32:48.846Z,23.85
2018-07-27T22:35:17.448Z,23.77
2018-07-27T22:37:46.206Z,23.73
2018-07-27T22:40:14.795Z,23.66
2018-07-27T22:42:43.374Z,23.62
2018-07-27T22:45:11.958Z,23.54
2018-07-27T22:47:40.498Z,23.47
2018-07-27T22:50:09.178Z,23.39
2018-07-27T22:52:39.855Z,23.32
2018-07-27T22:55:10.923Z,23.24
2018-07-27T22:57:40.559Z,23.20
2018-07-27T23:00:12.795Z,23.14
2018-07-27T23:02:42.128Z,23.10
2018-07-27T23:05:10.958Z,23.08
2018-07-27T23:07:39.542Z,23.07
2018-07-27T23:10:09.455Z,23.06
2018-07-27T23:12:38.346Z,23.07
2018-07-27T23:15:08.907Z,23.07
2018-07-27T23:17:37.463Z,23.07
2018-07-27T23:20:10.111Z,23.04
2018-07-27T23:22:38.768Z,22.97
2018-07-27T23:25:08.042Z,22.95
2018-07-27T23:27:37.174Z,22.92
2018-07-27T23:30:07.730Z,22.89
2018-07-27T23:32:36.387Z,22.86
2018-07-27T23:35:05.015Z,22.83
2018-07-27T23:37:33.657Z,22.79
2018-07-27T23:40:02.187Z,22.69
2018-07-27T23:42:30.870Z,22.62
2018-07-27T23:44:59.382Z,22.54
2018-07-27T23:47:28.006Z,22.46
2018-07-27T23:49:57.705Z,22.38
2018-07-27T23:52:26.382Z,22.29
2018-07-27T23:54:55.070Z,22.19
2018-07-27T23:57:23.760Z,22.11
2018-07-27T23:59:53.365Z,22.04
